createdAt,value
2022-11-23T00:01:32.900Z,56.69
2022-11-23T00:04:05.784Z,56.98
2022-11-23T00:06:33.281Z,57.07
2022-11-23T00:09:00.252Z,57.30
2022-11-23T00:11:28.238Z,56.44
2022-11-23T00:13:55.942Z,56.75
2022-11-23T00:16:25.166Z,55.99
2022-11-23T00:18:57.297Z,58.17
2022-11-23T00:21:26.075Z,58.21
2022-11-23T00:23:53.447Z,57.45
2022-11-23T00:26:20.550Z,57.11
2022-11-23T00:28:48.023Z,56.89
2022-11-23T00:31:20.286Z,56.53
2022-11-23T00:33:54.607Z,56.36
2022-11-23T00:36:22.909Z,56.44
2022-11-23T00:38:50.346Z,56.12
2022-11-23T00:41:26.269Z,55.31
2022-11-23T00:43:53.309Z,55.50
2022-11-23T00:46:27.859Z,56.23
2022-11-23T00:48:56.299Z,55.58
2022-11-23T00:51:26.013Z,56.74
2022-11-23T00:53:53.077Z,56.70
2022-11-23T00:56:20.424Z,58.63
2022-11-23T00:58:51.432Z,58.26
2022-11-23T01:01:20.724Z,57.94
2022-11-23T01:03:50.414Z,58.45
2022-11-23T01:06:20.846Z,59.26
2022-11-23T01:08:58.683Z,60.33
2022-11-23T01:11:28.060Z,59.12
2022-11-23T01:13:55.429Z,58.56
2022-11-23T01:16:31.137Z,59.34
2022-11-23T01:19:04.611Z,58.75
2022-11-23T01:21:33.420Z,58.06
2022-11-23T01:24:00.209Z,58.63
2022-11-23T01:26:27.100Z,57.96
2022-11-23T01:28:57.275Z,58.86
2022-11-23T01:31:25.544Z,58.71
2022-11-23T01:33:57.803Z,58.14
2022-11-23T01:36:27.745Z,57.14
2022-11-23T01:38:55.629Z,56.75
2022-11-23T01:41:25.316Z,57.12
2022-11-23T01:43:52.970Z,56.73
2022-11-23T01:46:20.333Z,57.10
2022-11-23T01:48:57.218Z,56.93
2022-11-23T01:51:35.153Z,57.74
2022-11-23T01:54:13.730Z,57.88
2022-11-23T01:56:46.404Z,58.25
2022-11-23T01:59:17.331Z,57.70
2022-11-23T02:01:44.429Z,57.87
2022-11-23T02:04:22.456Z,59.91
2022-11-23T02:06:50.638Z,59.16
2022-11-23T02:09:20.065Z,58.64
2022-11-23T02:11:46.927Z,57.94
2022-11-23T02:14:16.830Z,58.58
2022-11-23T02:16:47.431Z,57.98
2022-11-23T02:19:41.530Z,59.80
2022-11-23T02:22:16.994Z,58.64
2022-11-23T02:24:49.515Z,58.85
2022-11-23T02:27:17.518Z,58.36
2022-11-23T02:29:44.595Z,58.89
2022-11-23T02:32:11.318Z,59.36
2022-11-23T02:34:38.134Z,58.75
2022-11-23T02:37:04.929Z,59.43
2022-11-23T02:39:46.463Z,59.01
2022-11-23T02:42:13.383Z,58.41
2022-11-23T02:44:40.020Z,58.33
2022-11-23T02:47:08.054Z,58.17
2022-11-23T02:49:34.982Z,58.40
2022-11-23T02:52:03.013Z,58.32
2022-11-23T02:54:30.099Z,57.78
2022-11-23T02:56:57.672Z,58.07
2022-11-23T02:59:24.735Z,59.60
2022-11-23T03:01:53.547Z,58.91
2022-11-23T03:04:27.162Z,59.16
2022-11-23T03:06:54.687Z,57.99
2022-11-23T03:09:21.526Z,58.86
2022-11-23T03:11:48.321Z,58.16
2022-11-23T03:14:15.370Z,58.90
2022-11-23T03:16:48.863Z,59.04
2022-11-23T03:19:17.778Z,60.77
2022-11-23T03:21:44.616Z,59.47
2022-11-23T03:24:11.522Z,60.38
2022-11-23T03:26:38.811Z,59.55
2022-11-23T03:29:10.369Z,58.24
2022-11-23T03:31:39.523Z,59.23
2022-11-23T03:34:10.571Z,60.29
2022-11-23T03:36:38.589Z,59.47
2022-11-23T03:39:05.585Z,58.50
2022-11-23T03:41:55.130Z,58.67
2022-11-23T03:44:26.939Z,58.36
2022-11-23T03:46:54.128Z,60.76
2022-11-23T03:49:20.817Z,58.79
2022-11-23T03:51:47.556Z,57.58
2022-11-23T03:54:14.531Z,58.16
2022-11-23T03:56:41.244Z,58.10
2022-11-23T03:59:08.311Z,58.01
2022-11-23T04:01:35.227Z,57.83
2022-11-23T04:04:05.537Z,58.28
2022-11-23T04:06:52.586Z,59.71
2022-11-23T04:09:24.121Z,59.60
2022-11-23T04:12:11.258Z,60.14
2022-11-23T04:14:39.657Z,59.93
2022-11-23T04:17:06.578Z,58.94
2022-11-23T04:19:33.774Z,60.24
2022-11-23T04:22:00.895Z,59.24
2022-11-23T04:24:33.827Z,59.90
2022-11-23T04:27:04.041Z,59.57
2022-11-23T04:29:31.025Z,59.52
2022-11-23T04:31:58.146Z,60.09
2022-11-23T04:34:25.569Z,60.10
2022-11-23T04:36:53.574Z,59.61
2022-11-23T04:39:26.727Z,58.85
2022-11-23T04:42:22.868Z,59.51
2022-11-23T04:44:57.393Z,59.35
2022-11-23T04:47:25.821Z,60.41
2022-11-23T04:49:53.957Z,60.76
2022-11-23T04:52:21.078Z,60.89
2022-11-23T04:54:50.186Z,63.00
2022-11-23T04:57:16.979Z,62.57
2022-11-23T04:59:45.468Z,60.43
2022-11-23T05:02:12.202Z,59.89
2022-11-23T05:04:48.276Z,62.02
2022-11-23T05:07:17.504Z,61.97
2022-11-23T05:09:50.155Z,63.57
2022-11-23T05:12:18.686Z,63.43
2022-11-23T05:14:45.530Z,62.03
2022-11-23T05:17:17.031Z,63.54
2022-11-23T05:19:46.544Z,62.83
2022-11-23T05:22:13.755Z,63.36
2022-11-23T05:24:42.026Z,64.80
2022-11-23T05:27:27.385Z,63.37
2022-11-23T05:29:55.290Z,63.39
2022-11-23T05:32:22.082Z,62.31
2022-11-23T05:34:48.761Z,65.61
2022-11-23T05:37:17.318Z,64.82
2022-11-23T05:39:53.250Z,63.04
2022-11-23T05:42:21.465Z,62.92
2022-11-23T05:44:48.453Z,64.09
2022-11-23T05:47:22.462Z,63.94
2022-11-23T05:49:50.451Z,63.78
2022-11-23T05:52:20.357Z,63.17
2022-11-23T05:54:47.829Z,64.08
2022-11-23T05:57:15.913Z,62.81
2022-11-23T05:59:44.870Z,63.00
2022-11-23T06:02:17.407Z,65.67
2022-11-23T06:04:44.950Z,65.01
2022-11-23T06:07:16.137Z,64.18
2022-11-23T06:10:04.278Z,65.01
2022-11-23T06:12:33.325Z,63.00
2022-11-23T06:15:01.308Z,62.29
2022-11-23T06:17:30.087Z,61.53
2022-11-23T06:20:02.243Z,60.54
2022-11-23T06:22:29.437Z,60.68
2022-11-23T06:25:01.652Z,63.71
2022-11-23T06:27:53.108Z,61.03
2022-11-23T06:30:25.157Z,62.80
2022-11-23T06:32:52.550Z,62.15
2022-11-23T06:35:21.224Z,60.27
2022-11-23T06:37:50.303Z,60.45
2022-11-23T06:40:17.614Z,60.95
2022-11-23T06:42:44.839Z,60.56
2022-11-23T06:45:20.341Z,61.40
2022-11-23T06:47:50.878Z,60.82
2022-11-23T06:50:18.306Z,62.37
2022-11-23T06:52:47.024Z,63.66
2022-11-23T06:55:15.193Z,62.93
2022-11-23T06:57:42.011Z,60.37
2022-11-23T07:00:11.908Z,61.16
2022-11-23T07:02:39.117Z,61.49
2022-11-23T07:05:06.387Z,61.05
2022-11-23T07:07:34.024Z,62.50
2022-11-23T07:10:10.610Z,60.62
2022-11-23T07:12:54.390Z,61.52
2022-11-23T07:15:22.703Z,61.43
2022-11-23T07:17:51.427Z,60.40
2022-11-23T07:20:20.686Z,60.85
2022-11-23T07:22:47.444Z,59.91
2022-11-23T07:25:18.452Z,60.24
2022-11-23T07:27:45.369Z,60.10
2022-11-23T07:30:12.591Z,61.51
2022-11-23T07:32:39.380Z,60.68
2022-11-23T07:35:06.492Z,60.86
2022-11-23T07:37:36.871Z,60.91
2022-11-23T07:40:05.494Z,60.92
2022-11-23T07:42:39.785Z,59.73
2022-11-23T07:45:10.582Z,61.37
2022-11-23T07:47:39.777Z,61.22
2022-11-23T07:50:08.686Z,62.79
2022-11-23T07:52:36.995Z,62.32
2022-11-23T07:55:04.967Z,61.81
2022-11-23T07:57:31.884Z,60.62
2022-11-23T07:59:58.951Z,59.41
2022-11-23T08:02:25.933Z,58.94
2022-11-23T08:04:52.666Z,58.54
2022-11-23T08:07:19.327Z,57.40
2022-11-23T08:09:46.235Z,56.77
2022-11-23T08:12:12.907Z,56.60
2022-11-23T08:14:39.825Z,56.40
2022-11-23T08:17:06.719Z,56.46
2022-11-23T08:19:33.359Z,55.28
2022-11-23T08:22:00.082Z,55.70
2022-11-23T08:24:27.056Z,55.16
2022-11-23T08:26:53.709Z,55.64
2022-11-23T08:29:20.754Z,54.42
2022-11-23T08:31:47.523Z,53.72
2022-11-23T08:34:14.316Z,53.41
2022-11-23T08:36:41.294Z,53.15
2022-11-23T08:39:08.807Z,52.70
2022-11-23T08:41:35.549Z,51.19
2022-11-23T08:44:02.448Z,50.80
2022-11-23T08:46:29.147Z,49.93
2022-11-23T08:48:56.266Z,50.53
2022-11-23T08:51:23.229Z,50.84
2022-11-23T08:53:50.576Z,51.22
2022-11-23T08:56:17.629Z,51.26
2022-11-23T08:58:45.179Z,52.36
2022-11-23T09:01:13.892Z,52.31
2022-11-23T09:03:41.704Z,53.19
2022-11-23T09:06:09.051Z,53.08
2022-11-23T09:08:36.957Z,51.85
2022-11-23T09:11:06.702Z,50.87
2022-11-23T09:13:37.144Z,50.30
2022-11-23T09:16:04.782Z,49.46
2022-11-23T09:18:33.365Z,49.19
2022-11-23T09:21:05.619Z,48.37
2022-11-23T09:23:33.091Z,47.88
2022-11-23T09:26:00.833Z,46.94
2022-11-23T09:28:28.545Z,46.98
2022-11-23T09:30:56.476Z,47.85
2022-11-23T09:33:25.202Z,47.59
2022-11-23T09:36:02.538Z,46.82
2022-11-23T09:38:54.580Z,46.71
2022-11-23T09:41:41.317Z,45.83
2022-11-23T09:44:39.425Z,46.72
2022-11-23T09:47:08.809Z,47.12
2022-11-23T09:49:44.302Z,45.54
2022-11-23T09:52:19.312Z,45.52
2022-11-23T09:54:47.555Z,44.94
2022-11-23T09:57:19.661Z,45.41
2022-11-23T09:59:55.806Z,46.20
2022-11-23T10:02:25.862Z,45.79
2022-11-23T10:04:53.799Z,45.08
2022-11-23T10:07:20.867Z,45.25
2022-11-23T10:10:10.403Z,45.34
2022-11-23T10:12:58.213Z,44.86
2022-11-23T10:15:39.681Z,44.55
2022-11-23T10:18:31.801Z,45.21
2022-11-23T10:21:36.204Z,45.44
2022-11-23T10:24:08.830Z,46.17
2022-11-23T10:26:40.083Z,46.88
2022-11-23T10:29:30.981Z,47.12
2022-11-23T10:31:59.388Z,47.79
2022-11-23T10:34:26.255Z,47.07
2022-11-23T10:36:52.964Z,47.52
2022-11-23T10:39:25.602Z,47.81
2022-11-23T10:41:53.613Z,47.65
2022-11-23T10:44:31.392Z,48.31
2022-11-23T10:46:59.633Z,48.56
2022-11-23T10:49:29.693Z,49.73
2022-11-23T10:52:05.893Z,48.92
2022-11-23T10:54:37.068Z,48.52
2022-11-23T10:57:39.828Z,49.19
2022-11-23T11:00:18.201Z,48.78
2022-11-23T11:02:54.657Z,48.42
2022-11-23T11:06:08.267Z,49.82
2022-11-23T11:08:21.089Z,50.32
2022-11-23T11:10:58.600Z,49.21
2022-11-23T11:13:32.640Z,48.17
2022-11-23T11:16:05.882Z,47.76
2022-11-23T11:18:37.965Z,45.93
2022-11-23T11:21:21.510Z,46.88
2022-11-23T11:23:54.407Z,45.94
2022-11-23T11:26:24.908Z,46.73
2022-11-23T11:28:58.107Z,47.19
2022-11-23T11:31:43.337Z,46.81
2022-11-23T11:34:20.953Z,46.08
2022-11-23T11:37:25.897Z,46.10
2022-11-23T11:39:57.611Z,46.61
2022-11-23T11:42:44.785Z,45.61
2022-11-23T11:45:19.340Z,44.08
2022-11-23T11:48:10.140Z,42.81
2022-11-23T11:50:50.701Z,42.57
2022-11-23T11:53:22.928Z,42.84
2022-11-23T11:56:18.665Z,45.47
2022-11-23T11:58:56.189Z,44.31
2022-11-23T12:01:43.548Z,38.17
2022-11-23T12:04:39.615Z,33.31
2022-11-23T12:07:18.384Z,32.16
2022-11-23T12:09:52.250Z,31.20
2022-11-23T12:12:26.603Z,31.17
2022-11-23T12:14:57.282Z,29.31
2022-11-23T12:17:51.767Z,28.04
2022-11-23T12:20:33.742Z,27.03
2022-11-23T12:23:00.573Z,25.51
2022-11-23T12:26:13.682Z,24.01
2022-11-23T12:28:58.826Z,22.32
2022-11-23T12:31:43.255Z,24.23
2022-11-23T12:34:18.882Z,24.54
2022-11-23T12:37:10.442Z,24.21
2022-11-23T12:40:03.697Z,24.56
2022-11-23T12:42:44.680Z,23.44
2022-11-23T12:45:29.629Z,23.18
2022-11-23T12:48:21.468Z,22.46
2022-11-23T12:51:33.709Z,23.62
2022-11-23T12:54:25.691Z,23.93
2022-11-23T12:56:55.060Z,23.93
2022-11-23T12:59:24.791Z,22.24
2022-11-23T13:02:00.612Z,22.58
2022-11-23T13:04:52.128Z,21.81
2022-11-23T13:07:51.166Z,21.42
2022-11-23T13:10:52.363Z,21.80
2022-11-23T13:13:33.588Z,24.28
2022-11-23T13:16:15.733Z,26.91
2022-11-23T13:18:48.958Z,25.66
2022-11-23T13:21:39.305Z,26.28
2022-11-23T13:24:25.890Z,25.07
2022-11-23T13:27:29.847Z,24.00
2022-11-23T13:30:01.166Z,24.91
2022-11-23T13:32:39.913Z,25.73
2022-11-23T13:35:18.892Z,27.15
2022-11-23T13:37:58.163Z,27.38
2022-11-23T13:40:29.706Z,28.25
2022-11-23T13:43:19.148Z,28.80
2022-11-23T13:45:46.585Z,28.84
2022-11-23T13:48:48.963Z,29.28
2022-11-23T13:51:05.871Z,30.06
2022-11-23T13:53:37.201Z,30.03
2022-11-23T13:56:23.596Z,31.00
2022-11-23T13:59:11.837Z,31.72
2022-11-23T14:02:10.295Z,31.11
2022-11-23T14:04:40.809Z,31.28
2022-11-23T14:07:28.856Z,31.78
2022-11-23T14:10:09.839Z,32.25
2022-11-23T14:12:47.431Z,32.30
2022-11-23T14:15:22.840Z,32.14
2022-11-23T14:18:14.407Z,31.70
2022-11-23T14:21:04.996Z,31.49
2022-11-23T14:24:14.193Z,32.35
2022-11-23T14:26:55.218Z,34.80
2022-11-23T14:29:22.272Z,34.21
2022-11-23T14:32:25.579Z,34.26
2022-11-23T14:35:12.588Z,34.60
2022-11-23T14:38:03.922Z,35.11
2022-11-23T14:41:08.453Z,34.72
2022-11-23T14:43:40.191Z,34.50
2022-11-23T14:46:15.386Z,35.06
2022-11-23T14:48:42.322Z,35.83
2022-11-23T14:51:26.517Z,36.34
2022-11-23T14:54:00.000Z,37.18
2022-11-23T14:56:36.921Z,36.77
2022-11-23T14:59:08.592Z,38.41
2022-11-23T15:01:37.395Z,37.58
2022-11-23T15:04:10.219Z,39.00
2022-11-23T15:06:45.577Z,37.04
2022-11-23T15:10:00.571Z,38.32
2022-11-23T15:12:40.385Z,37.46
2022-11-23T15:15:19.487Z,36.94
2022-11-23T15:17:53.182Z,36.34
2022-11-23T15:20:21.489Z,37.03
2022-11-23T15:22:49.298Z,36.57
2022-11-23T15:25:19.607Z,37.00
2022-11-23T15:27:49.414Z,36.48
2022-11-23T15:30:18.619Z,37.35
2022-11-23T15:32:56.430Z,37.18
2022-11-23T15:35:30.706Z,37.37
2022-11-23T15:37:59.418Z,38.19
2022-11-23T15:40:29.998Z,39.12
2022-11-23T15:42:57.444Z,39.21
2022-11-23T15:45:42.830Z,38.92
2022-11-23T15:48:21.710Z,39.01
2022-11-23T15:50:55.388Z,39.53
2022-11-23T15:53:27.199Z,41.35
2022-11-23T15:55:58.704Z,42.13
2022-11-23T15:58:25.747Z,41.33
2022-11-23T16:01:16.354Z,41.99
2022-11-23T16:04:00.789Z,43.04
2022-11-23T16:06:41.899Z,41.94
2022-11-23T16:09:57.130Z,42.74
2022-11-23T16:12:27.965Z,42.37
2022-11-23T16:14:56.682Z,42.35
2022-11-23T16:17:29.045Z,43.41
2022-11-23T16:20:03.974Z,43.95
2022-11-23T16:22:32.062Z,43.49
2022-11-23T16:25:04.482Z,44.52
2022-11-23T16:27:31.377Z,43.71
2022-11-23T16:30:02.889Z,44.05
2022-11-23T16:32:32.207Z,44.79
2022-11-23T16:35:14.599Z,44.87
2022-11-23T16:37:41.415Z,44.64
2022-11-23T16:40:08.710Z,43.19
2022-11-23T16:42:35.660Z,43.24
2022-11-23T16:45:03.422Z,42.70
2022-11-23T16:47:30.683Z,41.99
2022-11-23T16:49:57.738Z,42.53
2022-11-23T16:52:24.619Z,43.07
2022-11-23T16:54:52.757Z,42.56
2022-11-23T16:57:30.181Z,43.81
2022-11-23T17:00:02.511Z,42.59
2022-11-23T17:02:29.513Z,42.29
2022-11-23T17:04:59.471Z,43.30
2022-11-23T17:07:26.336Z,42.61
2022-11-23T17:09:53.665Z,43.53
2022-11-23T17:12:20.694Z,42.88
2022-11-23T17:14:49.498Z,42.62
2022-11-23T17:17:20.444Z,42.21
2022-11-23T17:19:49.775Z,43.56
2022-11-23T17:22:18.894Z,43.45
2022-11-23T17:24:47.329Z,42.38
2022-11-23T17:27:20.981Z,42.04
2022-11-23T17:29:51.260Z,43.29
2022-11-23T17:32:17.963Z,45.32
2022-11-23T17:34:45.297Z,45.11
2022-11-23T17:37:31.948Z,45.25
2022-11-23T17:39:58.873Z,45.75
2022-11-23T17:42:25.613Z,45.55
2022-11-23T17:44:52.518Z,44.84
2022-11-23T17:47:30.295Z,44.74
2022-11-23T17:49:58.272Z,45.81
2022-11-23T17:52:25.298Z,44.13
2022-11-23T17:54:52.304Z,43.80
2022-11-23T17:57:26.600Z,44.09
2022-11-23T17:59:54.582Z,44.53
2022-11-23T18:02:21.478Z,44.51
2022-11-23T18:04:48.594Z,44.01
2022-11-23T18:07:16.577Z,44.77
2022-11-23T18:09:43.605Z,44.88
2022-11-23T18:12:11.644Z,43.92
2022-11-23T18:14:38.689Z,44.42
2022-11-23T18:17:06.090Z,44.91
2022-11-23T18:19:32.941Z,45.73
2022-11-23T18:22:00.045Z,44.49
2022-11-23T18:24:26.944Z,44.00
2022-11-23T18:26:54.039Z,43.75
2022-11-23T18:29:20.821Z,43.69
2022-11-23T18:31:50.582Z,44.83
2022-11-23T18:34:17.279Z,45.26
2022-11-23T18:36:44.244Z,44.64
2022-11-23T18:39:11.128Z,46.80
2022-11-23T18:41:38.092Z,45.22
2022-11-23T18:44:04.956Z,45.02
2022-11-23T18:46:33.283Z,45.47
2022-11-23T18:49:00.668Z,45.20
2022-11-23T18:51:28.571Z,44.38
2022-11-23T18:53:55.679Z,45.57
2022-11-23T18:56:23.919Z,45.31
2022-11-23T18:58:50.678Z,44.79
2022-11-23T19:01:19.917Z,44.91
2022-11-23T19:03:49.142Z,45.30
2022-11-23T19:06:18.042Z,46.10
2022-11-23T19:08:47.371Z,47.20
2022-11-23T19:11:18.060Z,45.60
2022-11-23T19:13:47.537Z,46.37
2022-11-23T19:16:17.191Z,45.80
2022-11-23T19:18:45.178Z,46.12
2022-11-23T19:21:22.967Z,45.97
2022-11-23T19:23:51.786Z,44.88
2022-11-23T19:26:19.549Z,46.06
2022-11-23T19:28:47.002Z,46.80
2022-11-23T19:31:14.113Z,46.65
2022-11-23T19:33:43.366Z,45.29
2022-11-23T19:36:15.215Z,45.63
2022-11-23T19:38:43.954Z,46.49
2022-11-23T19:41:11.190Z,45.96
2022-11-23T19:43:38.589Z,46.70
2022-11-23T19:46:07.168Z,47.09
2022-11-23T19:48:34.752Z,46.69
2022-11-23T19:51:10.186Z,46.48
2022-11-23T19:53:38.726Z,47.35
2022-11-23T19:56:17.721Z,47.02
2022-11-23T19:58:44.694Z,47.29
2022-11-23T20:01:14.048Z,47.66
2022-11-23T20:03:43.330Z,46.24
2022-11-23T20:06:16.387Z,46.78
2022-11-23T20:08:43.967Z,46.70
2022-11-23T20:11:14.549Z,48.10
2022-11-23T20:13:42.050Z,47.29
2022-11-23T20:16:14.704Z,47.43
2022-11-23T20:18:43.976Z,47.52
2022-11-23T20:21:15.501Z,47.55
2022-11-23T20:23:43.404Z,47.73
2022-11-23T20:26:14.685Z,47.60
2022-11-23T20:28:42.558Z,47.54
2022-11-23T20:31:20.460Z,47.35
2022-11-23T20:33:50.573Z,47.66
2022-11-23T20:36:20.070Z,47.60
2022-11-23T20:38:47.672Z,47.94
2022-11-23T20:41:15.965Z,47.83
2022-11-23T20:43:44.292Z,48.75
2022-11-23T20:46:11.658Z,50.02
2022-11-23T20:48:43.272Z,49.26
2022-11-23T20:51:11.027Z,48.14
2022-11-23T20:53:37.965Z,49.72
2022-11-23T20:56:07.813Z,49.23
2022-11-23T20:58:35.694Z,48.50
2022-11-23T21:01:09.697Z,48.36
2022-11-23T21:03:38.095Z,49.00
2022-11-23T21:06:06.011Z,48.46
2022-11-23T21:08:34.989Z,48.90
2022-11-23T21:11:41.471Z,49.41
2022-11-23T21:14:17.844Z,48.65
2022-11-23T21:16:55.004Z,49.56
2022-11-23T21:19:24.943Z,49.29
2022-11-23T21:21:52.808Z,49.37
2022-11-23T21:24:20.093Z,48.25
2022-11-23T21:26:47.739Z,48.99
2022-11-23T21:29:34.737Z,49.34
2022-11-23T21:32:01.668Z,50.24
2022-11-23T21:34:29.703Z,50.74
2022-11-23T21:36:57.268Z,49.59
2022-11-23T21:39:24.798Z,50.08
2022-11-23T21:41:53.762Z,49.17
2022-11-23T21:44:22.141Z,49.44
2022-11-23T21:46:49.560Z,49.61
2022-11-23T21:49:16.374Z,49.35
2022-11-23T21:51:43.807Z,49.63
2022-11-23T21:54:14.052Z,49.92
2022-11-23T21:56:42.706Z,50.09
2022-11-23T21:59:09.779Z,49.12
2022-11-23T22:01:37.631Z,48.83
2022-11-23T22:04:10.457Z,49.36
2022-11-23T22:06:38.568Z,49.69
2022-11-23T22:09:07.317Z,49.94
2022-11-23T22:11:35.984Z,49.58
2022-11-23T22:14:05.029Z,49.39
2022-11-23T22:16:40.786Z,49.51
2022-11-23T22:19:13.362Z,49.43
2022-11-23T22:21:42.151Z,49.32
2022-11-23T22:24:17.319Z,50.17
2022-11-23T22:26:45.866Z,49.82
2022-11-23T22:29:12.640Z,49.67
2022-11-23T22:31:39.600Z,49.40
2022-11-23T22:34:10.259Z,50.71
2022-11-23T22:36:37.174Z,50.57
2022-11-23T22:39:06.221Z,50.12
2022-11-23T22:41:36.699Z,50.26
2022-11-23T22:44:05.829Z,49.75
2022-11-23T22:46:32.904Z,50.64
2022-11-23T22:48:59.730Z,50.30
2022-11-23T22:51:28.515Z,51.77
2022-11-23T22:53:57.214Z,51.26
2022-11-23T22:56:24.506Z,50.91
2022-11-23T22:58:51.209Z,50.75
2022-11-23T23:01:20.636Z,52.09
2022-11-23T23:03:47.776Z,51.96
2022-11-23T23:06:19.637Z,51.75
2022-11-23T23:08:48.044Z,50.82
2022-11-23T23:11:15.718Z,50.94
2022-11-23T23:13:42.914Z,50.89
2022-11-23T23:16:13.685Z,50.68
2022-11-23T23:18:41.850Z,50.83
2022-11-23T23:21:18.497Z,50.80
2022-11-23T23:23:47.163Z,50.98
2022-11-23T23:26:16.047Z,51.23
2022-11-23T23:28:43.313Z,50.66
2022-11-23T23:31:12.661Z,54.08
2022-11-23T23:33:39.956Z,53.76
2022-11-23T23:36:09.638Z,52.49
2022-11-23T23:38:37.479Z,51.62
2022-11-23T23:41:05.579Z,51.52
2022-11-23T23:43:32.763Z,51.28
2022-11-23T23:46:04.700Z,52.42
2022-11-23T23:48:33.839Z,53.81
2022-11-23T23:51:07.983Z,53.04
2022-11-23T23:53:36.057Z,53.43
2022-11-23T23:56:05.913Z,53.90
2022-11-23T23:58:32.748Z,53.27
